Time;durP1;ratioP1;P1;durP2;ratioP2;P2;SDS_P1;SDS_P2;PMS_P1;PMS_P2;Temp;Humidity;BMP_temperature;BMP_pressure;BME280_temperature;BME280_humidity;BME280_pressure;Samples;Min_cycle;Max_cycle;Signal;HPM_P1;HPM_P2
2021/10/18 06:00:13;;;;;;;11.77;3.45;;;16.60;99.90;;;;;;6143899;23;20846;31
2021/10/18 06:02:39;;;;;;;13.88;3.80;;;16.60;99.90;;;;;;6153275;23;19920;-82
2021/10/18 06:05:07;;;;;;;13.95;3.20;;;16.60;99.90;;;;;;6153416;23;20044;-82
2021/10/18 06:07:34;;;;;;;13.02;4.00;;;16.60;99.90;;;;;;6153593;23;20404;-81
2021/10/18 06:10:01;;;;;;;11.20;3.33;;;16.60;99.90;;;;;;6154106;23;20072;-82
2021/10/18 06:12:27;;;;;;;10.38;3.55;;;16.60;99.90;;;;;;6152989;23;20025;-81
2021/10/18 06:14:56;;;;;;;12.10;3.00;;;16.60;99.90;;;;;;6154559;23;20092;-81
2021/10/18 06:17:23;;;;;;;;;;;16.60;99.90;;;;;;6153415;23;20033;-81
2021/10/18 06:19:50;;;;;;;12.10;3.88;;;16.60;99.90;;;;;;6153864;23;19916;-80
2021/10/18 06:22:17;;;;;;;11.35;3.65;;;16.60;99.90;;;;;;6152700;23;20030;-80
2021/10/18 06:24:45;;;;;;;12.57;4.10;;;16.60;99.90;;;;;;6155460;23;20432;-81
2021/10/18 06:27:12;;;;;;;10.05;3.90;;;16.60;99.90;;;;;;6152926;23;20145;-81
2021/10/18 06:29:39;;;;;;;15.10;3.80;;;16.60;99.90;;;;;;6151987;23;20029;-81
2021/10/18 06:32:06;;;;;;;10.50;3.85;;;16.60;99.90;;;;;;6152252;23;20487;-81
2021/10/18 06:34:34;;;;;;;12.32;3.80;;;16.60;99.90;;;;;;6153689;23;20026;-81
2021/10/18 06:37:00;;;;;;;8.23;3.90;;;16.60;99.90;;;;;;6154103;23;20021;-80
2021/10/18 06:39:27;;;;;;;12.38;4.07;;;16.60;99.90;;;;;;6152621;23;20068;-81
2021/10/18 06:41:55;;;;;;;12.20;3.95;;;16.60;99.90;;;;;;6151875;23;20032;-81
2021/10/18 06:44:22;;;;;;;13.95;4.60;;;16.60;99.90;;;;;;6151245;23;20049;-81
2021/10/18 06:46:48;;;;;;;12.60;4.22;;;16.60;99.90;;;;;;6174167;23;20087;-81
2021/10/18 06:49:15;;;;;;;16.08;5.07;;;16.60;99.90;;;;;;6150720;23;20498;-81
2021/10/18 06:51:52;;;;;;;11.23;4.20;;;16.60;99.90;;;;;;6150928;23;20021;-80
2021/10/18 06:54:20;;;;;;;11.40;4.88;;;16.60;99.90;;;;;;6151059;23;20025;-78
2021/10/18 06:56:48;;;;;;;12.40;4.25;;;16.60;99.90;;;;;;6152090;23;20021;-79
2021/10/18 06:59:16;;;;;;;8.15;4.43;;;16.60;99.90;;;;;;6152917;23;20025;-79
2021/10/18 07:01:43;;;;;;;11.70;5.05;;;16.60;99.90;;;;;;6171320;23;20075;-81
2021/10/18 07:04:10;;;;;;;11.25;4.43;;;16.60;99.90;;;;;;6182402;23;20069;-81
2021/10/18 07:06:37;;;;;;;7.43;4.40;;;16.60;99.90;;;;;;6183704;23;20071;-81
2021/10/18 07:09:04;;;;;;;9.98;4.68;;;16.60;99.90;;;;;;6182366;23;20020;-78
2021/10/18 07:11:31;;;;;;;7.20;4.15;;;16.60;99.90;;;;;;6156321;23;20041;-81
2021/10/18 07:13:58;;;;;;;8.45;4.15;;;16.60;99.90;;;;;;6183284;23;20017;-81
2021/10/18 07:16:24;;;;;;;9.98;4.97;;;16.60;99.90;;;;;;6182763;23;20029;-81
2021/10/18 07:18:51;;;;;;;13.25;4.88;;;16.60;99.90;;;;;;6182416;23;20475;-81
2021/10/18 07:21:18;;;;;;;12.00;5.15;;;16.60;99.90;;;;;;6182426;23;20021;-81
2021/10/18 07:23:51;;;;;;;13.38;5.30;;;16.60;99.90;;;;;;6182925;23;20071;-81
2021/10/18 07:26:19;;;;;;;10.93;5.28;;;16.60;99.90;;;;;;6182286;23;20083;-81
2021/10/18 07:28:46;;;;;;;17.23;5.10;;;16.60;99.90;;;;;;6182900;23;20067;-81
2021/10/18 07:31:13;;;;;;;11.27;4.65;;;16.60;99.90;;;;;;6181493;23;20029;-81
2021/10/18 07:33:40;;;;;;;9.57;5.15;;;16.60;99.90;;;;;;6181433;23;20025;-81
2021/10/18 07:36:09;;;;;;;12.65;4.93;;;16.70;99.90;;;;;;6181265;23;20075;-81
2021/10/18 07:38:38;;;;;;;10.57;5.32;;;16.60;99.90;;;;;;6181439;23;20079;-81
2021/10/18 07:41:07;;;;;;;13.15;5.00;;;16.70;99.90;;;;;;6181111;23;20017;-80
2021/10/18 07:43:34;;;;;;;7.05;4.95;;;16.70;99.90;;;;;;6181960;23;20080;-81
2021/10/18 07:46:02;;;;;;;9.18;4.63;;;16.60;99.90;;;;;;6182286;23;20017;-80
2021/10/18 07:48:29;;;;;;;9.57;5.05;;;16.70;99.90;;;;;;6180910;23;20021;-81
2021/10/18 07:50:56;;;;;;;11.88;4.50;;;16.70;99.90;;;;;;6181805;23;20021;-81
2021/10/18 07:53:22;;;;;;;8.90;4.63;;;16.70;99.90;;;;;;6180361;23;20032;-81
2021/10/18 07:55:49;;;;;;;13.90;5.05;;;16.70;99.90;;;;;;6182402;23;20021;-81
2021/10/18 07:58:21;;;;;;;11.32;5.28;;;16.70;99.90;;;;;;6180754;23;20032;-80
2021/10/18 08:00:49;;;;;;;11.02;5.47;;;16.70;99.90;;;;;;6181235;23;20025;-81
2021/10/18 08:03:16;;;;;;;11.38;5.28;;;16.70;99.90;;;;;;6181081;23;20017;-81
2021/10/18 08:05:43;;;;;;;8.85;4.93;;;16.70;99.90;;;;;;6181754;23;20052;-78
2021/10/18 08:08:13;;;;;;;8.05;4.53;;;16.70;99.90;;;;;;6180808;23;20025;-78
2021/10/18 08:11:04;;;;;;;14.13;6.65;;;16.70;99.90;;;;;;6181060;23;20071;-79
2021/10/18 08:13:31;;;;;;;12.95;5.95;;;16.70;99.90;;;;;;6180892;23;20480;-79
2021/10/18 08:15:57;;;;;;;12.95;5.10;;;16.70;99.90;;;;;;6181677;23;20071;-78
2021/10/18 08:18:29;;;;;;;9.95;5.70;;;16.80;99.90;;;;;;6181050;23;20009;-77
2021/10/18 08:20:56;;;;;;;10.52;5.57;;;16.80;99.90;;;;;;6181759;23;20475;-78
2021/10/18 08:23:23;;;;;;;13.30;5.88;;;16.80;99.90;;;;;;6180593;23;20021;-78
2021/10/18 08:25:50;;;;;;;12.52;5.72;;;16.80;99.90;;;;;;6181436;23;20044;-78
2021/10/18 08:28:17;;;;;;;11.35;5.85;;;16.80;99.90;;;;;;6180480;23;20025;-78
2021/10/18 08:31:00;;;;;;;11.82;6.43;;;16.80;99.90;;;;;;6181275;23;20790;-78
2021/10/18 08:33:27;;;;;;;11.55;5.55;;;16.90;99.90;;;;;;6179802;23;20471;-78
2021/10/18 08:35:53;;;;;;;8.30;5.55;;;16.90;99.90;;;;;;6181569;23;20025;-78
2021/10/18 08:46:08;;;;;;;14.48;5.88;;;16.90;99.90;;;;;;6180416;23;20367;-79
2021/10/18 08:48:53;;;;;;;7.95;4.75;;;17.00;99.90;;;;;;6180369;23;20036;-78
2021/10/18 08:51:21;;;;;;;9.65;5.43;;;17.00;99.90;;;;;;6180330;23;20075;-79
2021/10/18 08:53:48;;;;;;;11.07;4.85;;;17.00;99.90;;;;;;6180539;23;20021;-80
2021/10/18 08:56:15;;;;;;;11.00;5.15;;;17.00;99.90;;;;;;6180515;23;20024;-81
2021/10/18 08:58:42;;;;;;;12.07;5.45;;;17.00;99.90;;;;;;6181118;23;20266;-81
2021/10/18 09:01:09;;;;;;;8.02;5.75;;;16.90;99.90;;;;;;6179808;23;20021;-82
2021/10/18 09:03:36;;;;;;;12.88;5.07;;;17.00;99.90;;;;;;6181192;23;20092;-81
2021/10/18 09:06:27;;;;;;;10.82;5.00;;;16.90;99.90;;;;;;6181490;23;20091;-81
2021/10/18 09:08:56;;;;;;;7.70;4.47;;;17.00;99.90;;;;;;6181004;23;20356;-81
2021/10/18 09:11:29;;;;;;;7.07;4.07;;;16.90;99.90;;;;;;6180040;23;20353;-81
2021/10/18 09:13:59;;;;;;;6.57;3.75;;;16.90;99.90;;;;;;6181328;23;20017;-82
2021/10/18 09:16:38;;;;;;;6.20;3.97;;;16.90;99.90;;;;;;6180633;23;20021;-80
2021/10/18 09:19:09;;;;;;;5.47;3.72;;;17.00;99.90;;;;;;6154501;23;20092;-78
2021/10/18 09:21:58;;;;;;;7.55;4.03;;;17.00;99.90;;;;;;6181168;23;20025;-79
2021/10/18 09:24:34;;;;;;;10.05;4.57;;;17.00;99.90;;;;;;6181691;23;20095;-78
2021/10/18 09:27:05;;;;;;;9.20;4.15;;;17.00;99.90;;;;;;6183287;23;20021;-79
2021/10/18 09:29:44;;;;;;;8.02;3.70;;;17.00;99.90;;;;;;6182123;23;20084;-79
2021/10/18 09:32:28;;;;;;;8.88;4.38;;;17.00;99.90;;;;;;6183034;23;20056;-80
2021/10/18 09:35:08;;;;;;;6.05;3.45;;;16.90;99.90;;;;;;6182633;23;20044;-80
2021/10/18 09:37:40;;;;;;;8.68;3.42;;;17.00;99.90;;;;;;6182565;23;20013;-80
2021/10/18 09:40:08;;;;;;;10.57;3.15;;;17.00;99.90;;;;;;6182214;23;20337;-81
2021/10/18 09:42:35;;;;;;;4.28;2.75;;;17.00;99.90;;;;;;6183468;23;20025;-81
2021/10/18 10:53:22;;;;;;;1.50;0.50;;;17.30;99.90;;;;;;6181445;23;20054;-79
2021/10/18 10:55:51;;;;;;;1.75;0.80;;;17.30;99.90;;;;;;6182561;23;20080;-78
2021/10/18 10:58:30;;;;;;;3.40;1.20;;;17.30;99.90;;;;;;6179692;23;20021;-80
2021/10/18 11:00:57;;;;;;;3.78;1.05;;;17.30;99.90;;;;;;6181609;23;20100;-79
2021/10/18 11:03:30;;;;;;;4.28;1.55;;;17.30;99.90;;;;;;6181361;23;20036;-79
2021/10/18 11:06:04;;;;;;;5.07;1.50;;;17.40;99.90;;;;;;6181998;23;20032;-79
2021/10/18 11:08:40;;;;;;;5.15;1.20;;;17.40;99.90;;;;;;6181896;23;20021;-81
2021/10/18 11:28:24;;;;;;;3.85;1.00;;;17.50;99.90;;;;;;6229279;22;20064;-81
2021/10/18 11:30:59;;;;;;;3.10;1.40;;;17.60;99.90;;;;;;6241887;23;20017;-82
2021/10/18 11:33:26;;;;;;;5.00;1.38;;;17.60;99.90;;;;;;6241542;23;20254;-81
2021/10/18 11:35:53;;;;;;;5.40;1.48;;;17.60;99.90;;;;;;6242576;23;20039;-81
2021/10/18 11:38:25;;;;;;;4.70;1.33;;;17.60;99.90;;;;;;6241696;23;20028;-81
2021/10/18 11:40:53;;;;;;;3.33;1.17;;;17.60;99.90;;;;;;6242120;23;20504;-80
2021/10/18 11:43:22;;;;;;;5.97;1.63;;;17.70;99.90;;;;;;6241445;23;20043;-79
2021/10/18 11:45:51;;;;;;;4.45;1.30;;;17.70;99.90;;;;;;6242425;23;20024;-81
2021/10/18 11:48:30;;;;;;;5.65;1.25;;;17.70;99.90;;;;;;6241575;23;20028;-81
2021/10/18 11:50:59;;;;;;;7.60;1.50;;;17.70;99.90;;;;;;6215461;23;20086;-81
2021/10/18 11:53:31;;;;;;;9.20;1.88;;;17.80;99.90;;;;;;6241745;23;20078;-81
2021/10/18 11:56:03;;;;;;;15.55;2.10;;;17.80;99.90;;;;;;6242327;23;20016;-80
2021/10/18 11:58:32;;;;;;;18.63;2.22;;;17.80;99.90;;;;;;6242024;23;20070;-81
2021/10/18 12:01:18;;;;;;;46.47;3.13;;;17.80;99.90;;;;;;6241852;23;20458;-81
2021/10/18 12:03:45;;;;;;;47.40;3.53;;;17.80;99.90;;;;;;6241710;23;20013;-80
2021/10/18 12:06:13;;;;;;;65.47;4.07;;;17.90;99.90;;;;;;6241301;23;20466;-81
2021/10/18 12:08:43;;;;;;;96.20;5.20;;;17.80;99.90;;;;;;6242346;23;20016;-81
2021/10/18 12:11:13;;;;;;;77.93;5.30;;;17.90;99.90;;;;;;6241473;23;20016;-80
2021/10/18 12:13:41;;;;;;;57.83;4.10;;;17.80;99.90;;;;;;6241484;23;20020;-80
2021/10/18 12:16:24;;;;;;;109.60;5.75;;;17.80;99.90;;;;;;6241184;23;20019;-80
2021/10/18 12:18:55;;;;;;;140.40;6.88;;;17.90;99.90;;;;;;6241600;23;20035;-81
2021/10/18 12:21:22;;;;;;;200.35;8.88;;;17.90;99.90;;;;;;6241452;23;20020;-80
2021/10/18 12:23:51;;;;;;;65.28;5.65;;;17.80;99.90;;;;;;6241776;23;20505;-81
2021/10/18 12:26:26;;;;;;;85.82;6.45;;;17.90;99.90;;;;;;6241574;23;20024;-80
2021/10/18 12:28:54;;;;;;;111.30;6.97;;;17.90;99.90;;;;;;6241110;23;20016;-81
2021/10/18 12:31:28;;;;;;;106.50;6.47;;;17.90;99.90;;;;;;6241017;23;20024;-81
2021/10/18 12:33:59;;;;;;;134.98;7.32;;;17.90;99.90;;;;;;6241404;23;20016;-80
2021/10/18 12:36:27;;;;;;;81.15;6.05;;;17.90;99.90;;;;;;6237890;23;20627;-81
2021/10/18 12:38:54;;;;;;;98.95;6.22;;;17.90;99.90;;;;;;6242019;23;20024;-80
2021/10/18 12:41:22;;;;;;;98.88;5.82;;;17.90;99.90;;;;;;6240528;23;20024;-80
2021/10/18 12:43:50;;;;;;;114.35;7.38;;;17.90;99.90;;;;;;6241237;23;20082;-81
2021/10/18 12:46:26;;;;;;;102.15;7.30;;;17.90;99.90;;;;;;6241376;23;20028;-80
2021/10/18 12:48:57;;;;;;;92.25;6.75;;;17.90;99.90;;;;;;6241731;23;20020;-81
2021/10/18 12:51:31;;;;;;;63.40;6.07;;;17.90;99.90;;;;;;6240494;23;20082;-81
2021/10/18 12:54:19;;;;;;;51.38;5.88;;;17.90;99.90;;;;;;6241443;23;20021;-80
2021/10/18 12:57:16;;;;;;;56.05;6.25;;;17.90;99.90;;;;;;6240469;23;20020;-81
2021/10/18 13:00:11;;;;;;;46.03;5.97;;;17.90;99.90;;;;;;6215554;23;20070;-81
2021/10/18 13:02:39;;;;;;;27.52;6.03;;;17.90;99.90;;;;;;6214326;23;20016;-81
2021/10/18 13:05:13;;;;;;;67.00;6.75;;;18.00;99.90;;;;;;6240803;23;20094;-80
2021/10/18 13:07:57;;;;;;;33.50;5.85;;;17.90;99.90;;;;;;6241481;23;20102;-80
2021/10/18 13:10:29;;;;;;;38.92;7.15;;;18.00;99.90;;;;;;6240783;23;20024;-80
2021/10/18 13:12:58;;;;;;;41.35;7.18;;;18.00;99.90;;;;;;6241191;23;20060;-80
2021/10/18 13:15:25;;;;;;;54.35;7.70;;;18.00;99.90;;;;;;6240586;23;20024;-80
2021/10/18 13:17:52;;;;;;;48.47;9.00;;;18.00;99.90;;;;;;6241065;23;20016;-81
2021/10/18 13:20:23;;;;;;;37.20;7.30;;;18.00;99.90;;;;;;6241169;23;20343;-80
2021/10/18 13:22:52;;;;;;;53.30;8.25;;;18.00;99.90;;;;;;6241552;23;20016;-80
2021/10/18 13:25:22;;;;;;;91.63;8.85;;;18.00;99.90;;;;;;6240993;23;20027;-80
2021/10/18 13:27:49;;;;;;;68.07;9.48;;;18.00;99.90;;;;;;6240930;23;20414;-80
2021/10/18 13:30:16;;;;;;;90.63;9.63;;;18.00;99.90;;;;;;6240691;23;20020;-81
2021/10/18 13:32:46;;;;;;;88.80;9.10;;;18.00;99.90;;;;;;6241533;23;20469;-80
2021/10/18 13:35:13;;;;;;;135.00;10.43;;;18.00;99.90;;;;;;6240632;23;20024;-79
2021/10/18 13:37:40;;;;;;;89.55;9.57;;;18.10;99.90;;;;;;6242128;23;20027;-80
2021/10/18 13:40:10;;;;;;;105.00;10.85;;;18.00;99.90;;;;;;6240583;23;20028;-80
2021/10/18 13:42:43;;;;;;;85.68;9.80;;;18.00;99.90;;;;;;6241411;23;20062;-80
2021/10/18 13:45:11;;;;;;;91.68;11.32;;;18.10;99.90;;;;;;6240453;23;20070;-80
2021/10/18 13:47:38;;;;;;;;;;;18.10;99.90;;;;;;6215472;23;20017;-79
2021/10/18 13:50:06;;;;;;;114.10;12.18;;;18.10;99.90;;;;;;6241677;23;20247;-80
2021/10/18 13:52:34;;;;;;;119.60;11.60;;;18.10;99.90;;;;;;6241261;23;20009;-80
2021/10/18 13:55:07;;;;;;;114.40;12.57;;;18.00;99.90;;;;;;6240253;23;20020;-80
2021/10/18 13:57:35;;;;;;;68.57;10.50;;;18.00;99.90;;;;;;6241270;23;20078;-79
2021/10/18 14:00:04;;;;;;;61.80;10.73;;;18.10;99.90;;;;;;6241433;23;20082;-79
2021/10/18 14:02:30;;;;;;;;;;;18.10;99.90;;;;;;6241088;23;20074;-80
2021/10/18 14:04:57;;;;;;;79.97;11.10;;;18.00;99.90;;;;;;6240688;23;19919;-80
2021/10/18 14:07:24;;;;;;;52.20;11.15;;;18.00;99.90;;;;;;6240921;23;20024;-80
2021/10/18 14:09:51;;;;;;;19.00;8.35;;;18.00;99.90;;;;;;6241162;23;20024;-79
2021/10/18 14:12:18;;;;;;;37.65;10.13;;;18.00;99.90;;;;;;6242794;23;20111;-80
2021/10/18 14:14:45;;;;;;;125.35;13.68;;;18.00;99.90;;;;;;6242913;23;20051;-80
2021/10/18 14:17:12;;;;;;;117.57;13.80;;;18.00;99.90;;;;;;6242176;23;20024;-80
2021/10/18 14:19:39;;;;;;;138.05;13.60;;;18.00;99.90;;;;;;6242810;23;20024;-80
2021/10/18 14:22:05;;;;;;;100.15;13.63;;;18.00;99.90;;;;;;6243033;23;20117;-80
2021/10/18 14:24:35;;;;;;;106.07;12.57;;;18.00;99.90;;;;;;6242431;23;20452;-80
2021/10/18 14:27:02;;;;;;;89.68;13.35;;;18.00;99.90;;;;;;6242848;23;20486;-80
2021/10/18 14:29:29;;;;;;;138.05;15.43;;;18.00;99.90;;;;;;6241799;23;20016;-79
2021/10/18 14:31:57;;;;;;;58.22;14.30;;;18.00;99.90;;;;;;6243252;23;20032;-80
2021/10/18 14:34:24;;;;;;;76.55;14.38;;;18.00;99.90;;;;;;6241927;23;20024;-80
2021/10/18 14:36:52;;;;;;;46.97;12.48;;;18.00;99.90;;;;;;6242520;23;20020;-79
2021/10/18 14:39:19;;;;;;;42.15;12.63;;;18.00;99.90;;;;;;6241683;23;20129;-79
2021/10/18 14:41:46;;;;;;;43.50;11.45;;;18.00;99.90;;;;;;6242841;23;20431;-80
2021/10/18 14:44:13;;;;;;;41.05;10.88;;;18.00;99.90;;;;;;6241647;23;20086;-79
2021/10/18 14:46:40;;;;;;;36.40;10.77;;;18.00;99.90;;;;;;6242459;23;20070;-80
2021/10/18 14:49:08;;;;;;;34.65;10.40;;;18.00;99.90;;;;;;6242366;23;20541;-80
2021/10/18 14:51:36;;;;;;;42.40;10.13;;;18.00;99.90;;;;;;6242996;23;20028;-80
2021/10/18 14:54:06;;;;;;;39.53;10.47;;;18.00;99.90;;;;;;6242622;23;20074;-79
2021/10/18 14:56:34;;;;;;;54.42;11.95;;;18.00;99.90;;;;;;6242392;23;20320;-81
2021/10/18 14:59:01;;;;;;;50.45;12.63;;;18.00;99.90;;;;;;6242194;23;20019;-80
2021/10/18 15:01:32;;;;;;;51.38;12.20;;;18.10;99.90;;;;;;6242007;23;20020;-80
2021/10/18 15:04:00;;;;;;;48.58;13.02;;;18.10;99.90;;;;;;6242848;23;20486;-79
2021/10/18 15:06:27;;;;;;;41.30;12.63;;;18.00;99.90;;;;;;6242152;23;20074;-79
2021/10/18 15:08:56;;;;;;;45.17;12.13;;;18.00;99.90;;;;;;6242463;23;20066;-80
2021/10/18 15:11:23;;;;;;;47.42;14.02;;;18.10;99.90;;;;;;6241328;23;20020;-79
2021/10/18 15:13:50;;;;;;;58.60;13.82;;;18.00;99.90;;;;;;6242298;23;20502;-80
2021/10/18 15:16:17;;;;;;;47.63;13.40;;;18.00;99.90;;;;;;6241682;23;20047;-78
2021/10/18 15:18:44;;;;;;;45.28;13.13;;;18.00;99.90;;;;;;6242647;23;20019;-80
2021/10/18 15:21:13;;;;;;;39.17;12.50;;;18.00;99.90;;;;;;6240846;23;20070;-79
2021/10/18 15:23:40;;;;;;;51.53;13.45;;;18.00;99.90;;;;;;6242628;23;20020;-79
2021/10/18 15:26:07;;;;;;;56.63;14.40;;;18.10;99.90;;;;;;6242145;23;20529;-80
2021/10/18 15:28:35;;;;;;;59.17;15.23;;;18.10;99.90;;;;;;6242241;23;20016;-79
2021/10/18 15:31:04;;;;;;;61.15;15.88;;;18.10;99.90;;;;;;6242072;23;20066;-80
2021/10/18 15:33:31;;;;;;;64.28;16.15;;;18.10;99.90;;;;;;6242111;23;20019;-80
2021/10/18 15:35:58;;;;;;;63.92;16.88;;;18.10;99.90;;;;;;6216047;23;20027;-78
2021/10/18 15:38:25;;;;;;;72.10;16.83;;;18.10;99.90;;;;;;6241895;23;20020;-78
2021/10/18 15:40:53;;;;;;;60.63;16.88;;;18.10;99.90;;;;;;6215548;23;20335;-80
2021/10/18 15:43:19;;;;;;;62.20;16.20;;;18.10;99.90;;;;;;6241699;23;20016;-80
2021/10/18 15:45:51;;;;;;;73.38;17.05;;;18.10;99.90;;;;;;6242342;23;20016;-81
2021/10/18 15:48:19;;;;;;;64.35;17.35;;;18.10;99.90;;;;;;6241883;23;20511;-79
2021/10/18 15:50:47;;;;;;;58.53;17.05;;;18.10;99.90;;;;;;6241829;23;20016;-79
2021/10/18 15:53:14;;;;;;;74.93;18.00;;;18.10;99.90;;;;;;6241806;23;20028;-79
2021/10/18 15:55:41;;;;;;;64.18;17.23;;;18.10;99.90;;;;;;6241750;23;20070;-78
2021/10/18 15:58:08;;;;;;;59.20;15.88;;;18.10;99.90;;;;;;6240725;23;20051;-79
2021/10/18 16:00:35;;;;;;;51.95;15.20;;;18.10;99.90;;;;;;6240379;23;20016;-80
2021/10/18 16:03:03;;;;;;;38.63;13.35;;;18.10;99.90;;;;;;6240761;23;20016;-80
2021/10/18 16:05:30;;;;;;;39.40;10.95;;;18.10;99.90;;;;;;6239103;23;20392;-80
2021/10/18 16:07:57;;;;;;;33.53;11.68;;;18.10;99.90;;;;;;6241321;23;20528;-80
2021/10/18 16:10:24;;;;;;;32.45;10.43;;;18.10;99.90;;;;;;6240225;23;20362;-78
2021/10/18 16:12:51;;;;;;;31.15;10.77;;;18.10;99.90;;;;;;6240849;23;20051;-79
2021/10/18 16:15:19;;;;;;;35.08;12.10;;;18.10;99.90;;;;;;6240508;23;20405;-79
2021/10/18 16:17:46;;;;;;;44.83;14.00;;;18.10;99.90;;;;;;6241487;23;20016;-79
2021/10/18 16:20:13;;;;;;;56.35;15.20;;;18.10;99.90;;;;;;6240244;23;20024;-80
2021/10/18 16:22:42;;;;;;;66.90;23.92;;;18.10;99.90;;;;;;6239176;23;20375;-79
2021/10/18 16:25:10;;;;;;;;;;;18.10;99.90;;;;;;6238102;23;20024;-80
2021/10/18 16:27:38;;;;;;;74.27;19.80;;;18.10;99.90;;;;;;6237018;23;20266;-79
2021/10/18 16:30:07;;;;;;;74.10;17.63;;;18.00;99.90;;;;;;6237680;23;20020;-79
2021/10/18 16:33:16;;;;;;;63.88;17.95;;;18.00;99.90;;;;;;6212800;23;20478;-80
2021/10/18 16:35:57;;;;;;;54.55;17.30;;;18.00;99.90;;;;;;6137053;23;20032;-79
2021/10/18 16:38:24;;;;;;;67.50;21.65;;;18.00;99.90;;;;;;6138886;23;20033;-78
2021/10/18 16:40:52;;;;;;;72.13;21.17;;;18.00;99.90;;;;;;6140250;23;20025;-77
2021/10/18 16:43:19;;;;;;;84.30;19.73;;;18.00;99.90;;;;;;6140135;23;20774;-78
2021/10/18 16:45:47;;;;;;;77.47;22.02;;;18.00;99.90;;;;;;6142091;23;20022;-77
2021/10/18 16:48:15;;;;;;;83.80;22.60;;;18.00;99.90;;;;;;6141111;23;20093;-76
2021/10/18 16:50:43;;;;;;;87.68;22.73;;;18.00;99.90;;;;;;6142253;23;20480;-79
2021/10/18 16:53:12;;;;;;;83.38;22.63;;;18.00;99.90;;;;;;6140771;23;20092;-78
2021/10/18 16:55:40;;;;;;;79.25;21.80;;;18.00;99.90;;;;;;6141445;23;20770;-77
2021/10/18 16:58:07;;;;;;;93.35;24.48;;;18.00;99.90;;;;;;6141104;23;20029;-77
2021/10/18 17:00:34;;;;;;;83.05;22.38;;;18.00;99.90;;;;;;6141858;23;20025;-77
2021/10/18 17:03:01;;;;;;;86.50;21.77;;;18.00;99.90;;;;;;6141510;23;20088;-77
2021/10/18 17:05:36;;;;;;;84.65;20.85;;;18.00;99.90;;;;;;6141283;23;20026;-77
2021/10/18 17:08:07;;;;;;;74.15;19.80;;;18.00;99.90;;;;;;6208027;23;20102;-77
2021/10/18 17:10:34;;;;;;;59.05;16.02;;;18.00;99.90;;;;;;6206046;23;20016;-76
2021/10/18 17:13:02;;;;;;;55.27;16.10;;;18.00;99.90;;;;;;6235085;23;20028;-78
2021/10/18 17:15:31;;;;;;;53.00;16.35;;;18.00;99.90;;;;;;6234566;23;20024;-78
2021/10/18 17:17:58;;;;;;;58.92;16.13;;;17.90;99.90;;;;;;6234116;23;20020;-77
2021/10/18 17:20:26;;;;;;;56.55;16.33;;;17.90;99.90;;;;;;6234159;23;20028;-77
2021/10/18 17:22:53;;;;;;;67.70;18.35;;;17.90;99.90;;;;;;6234761;23;20024;-77
2021/10/18 17:25:20;;;;;;;72.93;19.00;;;17.90;99.90;;;;;;6233854;23;20024;-76
2021/10/18 17:27:47;;;;;;;88.93;19.38;;;17.90;99.90;;;;;;6235446;23;20024;-77
2021/10/18 17:30:14;;;;;;;78.97;22.55;;;17.90;99.90;;;;;;6234984;23;20104;-77
2021/10/18 17:32:41;;;;;;;95.78;23.65;;;17.90;99.90;;;;;;6235769;23;20028;-78
2021/10/18 17:35:08;;;;;;;109.07;20.70;;;17.90;99.90;;;;;;6233630;23;20017;-77
2021/10/18 17:37:35;;;;;;;92.43;21.45;;;17.90;99.90;;;;;;6234645;23;20016;-77
2021/10/18 17:40:03;;;;;;;104.70;23.80;;;17.80;99.90;;;;;;6232901;23;20024;-77
2021/10/18 17:42:30;;;;;;;105.07;22.65;;;17.80;99.90;;;;;;6235530;23;20016;-76
2021/10/18 17:44:57;;;;;;;100.15;22.45;;;17.80;99.90;;;;;;6237140;23;20020;-77
2021/10/18 17:47:23;;;;;;;99.18;22.92;;;17.80;99.90;;;;;;6236495;23;20406;-77
2021/10/18 17:49:50;;;;;;;102.13;21.63;;;17.80;99.90;;;;;;6237257;23;20085;-77
2021/10/18 17:52:17;;;;;;;81.30;22.33;;;17.80;99.90;;;;;;6236275;23;20541;-76
2021/10/18 17:54:45;;;;;;;118.38;39.90;;;17.80;99.90;;;;;;6236113;23;20020;-77
2021/10/18 17:57:12;;;;;;;139.53;42.30;;;17.80;99.90;;;;;;6235983;23;20032;-77
2021/10/18 17:59:41;;;;;;;109.20;26.55;;;17.70;99.90;;;;;;6236155;23;20027;-77
2021/10/18 18:02:07;;;;;;;103.07;30.55;;;17.80;99.90;;;;;;6235230;23;20024;-77
2021/10/18 18:04:36;;;;;;;124.70;34.55;;;17.80;99.90;;;;;;6235447;23;20466;-77
2021/10/18 18:07:03;;;;;;;104.47;22.70;;;17.80;99.90;;;;;;6236427;23;20025;-78
2021/10/18 18:09:30;;;;;;;114.43;23.15;;;17.70;99.90;;;;;;6237082;23;20020;-78
2021/10/18 18:11:57;;;;;;;104.65;25.58;;;17.70;99.90;;;;;;6237055;23;20017;-78
2021/10/18 18:14:26;;;;;;;115.38;28.08;;;17.70;99.90;;;;;;6235721;23;20032;-78
2021/10/18 18:16:55;;;;;;;117.32;28.80;;;17.70;99.90;;;;;;6236772;23;20734;-78
2021/10/18 18:19:23;;;;;;;123.07;34.13;;;17.70;99.90;;;;;;6236268;23;20024;-78
2021/10/18 18:21:51;;;;;;;136.57;43.97;;;17.70;99.90;;;;;;6237319;23;20401;-78
2021/10/18 18:24:18;;;;;;;145.18;52.72;;;17.70;99.90;;;;;;6235769;23;20317;-78
2021/10/18 18:26:47;;;;;;;141.70;37.50;;;17.70;99.90;;;;;;6237246;23;20020;-77
2021/10/18 18:29:14;;;;;;;112.28;37.80;;;17.70;99.90;;;;;;6206696;23;20094;-80
2021/10/18 18:31:40;;;;;;;123.97;30.27;;;17.60;99.90;;;;;;6209160;23;20413;-78
2021/10/18 18:34:07;;;;;;;105.15;32.70;;;17.60;99.90;;;;;;6235802;23;20020;-77
2021/10/18 18:36:35;;;;;;;117.22;36.72;;;17.60;99.90;;;;;;6237275;23;20267;-80
2021/10/18 18:39:02;;;;;;;145.55;46.42;;;17.60;99.90;;;;;;6236701;23;20024;-77
2021/10/18 18:41:29;;;;;;;108.88;25.55;;;17.60;99.90;;;;;;6211045;23;20020;-79
2021/10/18 18:43:56;;;;;;;127.75;42.03;;;17.60;99.90;;;;;;6236960;23;20054;-79
2021/10/18 18:46:23;;;;;;;126.07;36.75;;;17.60;99.90;;;;;;6237426;23;20020;-79
2021/10/18 18:48:50;;;;;;;112.40;29.23;;;17.60;99.90;;;;;;6236973;23;20020;-79
2021/10/18 18:51:17;;;;;;;122.05;31.52;;;17.60;99.90;;;;;;6237051;23;20024;-78
2021/10/18 18:53:44;;;;;;;113.45;26.85;;;17.60;99.90;;;;;;6237474;23;20047;-78
2021/10/18 18:56:11;;;;;;;117.00;28.83;;;17.60;99.90;;;;;;6236327;23;20036;-79
2021/10/18 18:58:38;;;;;;;115.28;28.27;;;17.60;99.90;;;;;;6237788;23;20020;-79
2021/10/18 19:01:05;;;;;;;106.25;27.83;;;17.60;99.90;;;;;;6209708;23;20022;-78
2021/10/18 19:03:33;;;;;;;103.18;26.80;;;17.60;99.90;;;;;;6234940;23;20036;-78
2021/10/18 19:06:00;;;;;;;96.32;25.10;;;17.60;99.90;;;;;;6237105;23;20074;-78
2021/10/18 19:08:27;;;;;;;84.05;24.27;;;17.60;99.90;;;;;;6236302;23;20024;-80
2021/10/18 19:10:56;;;;;;;80.28;22.85;;;17.50;99.90;;;;;;6210183;23;20023;-81
2021/10/18 19:13:23;;;;;;;87.20;23.88;;;17.60;99.90;;;;;;6237578;23;20024;-79
2021/10/18 19:15:50;;;;;;;82.70;24.58;;;17.50;99.90;;;;;;6237123;23;20059;-79
2021/10/18 19:18:17;;;;;;;92.10;24.10;;;17.60;99.90;;;;;;6235343;23;20024;-79
2021/10/18 19:20:44;;;;;;;78.85;24.60;;;17.60;99.90;;;;;;6237273;23;20024;-79
2021/10/18 19:23:14;;;;;;;77.50;24.70;;;17.60;99.90;;;;;;6236147;23;20040;-80
2021/10/18 19:25:43;;;;;;;84.43;27.52;;;17.60;99.90;;;;;;6236886;23;20024;-79
2021/10/18 19:28:09;;;;;;;89.10;26.67;;;17.60;99.90;;;;;;6234873;22;20028;-79
2021/10/18 19:30:37;;;;;;;96.85;26.45;;;17.60;99.90;;;;;;6235477;23;20413;-79
2021/10/18 19:33:04;;;;;;;101.53;31.42;;;17.60;99.90;;;;;;6236165;23;20541;-78
2021/10/18 19:35:31;;;;;;;93.75;27.23;;;17.60;99.90;;;;;;6209165;23;20023;-79
2021/10/18 19:37:58;;;;;;;102.47;28.45;;;17.60;99.90;;;;;;6236186;23;20135;-79
2021/10/18 19:40:25;;;;;;;97.18;28.90;;;17.60;99.90;;;;;;6208954;23;20028;-78
2021/10/18 19:42:52;;;;;;;83.68;25.75;;;17.60;99.90;;;;;;6236433;23;20087;-79
2021/10/18 19:45:18;;;;;;;93.35;28.73;;;17.60;99.90;;;;;;6235073;23;20032;-78
2021/10/18 19:47:45;;;;;;;90.45;28.58;;;17.60;99.90;;;;;;6237604;23;20070;-76
2021/10/18 19:50:15;;;;;;;98.60;26.60;;;17.60;99.90;;;;;;6236599;23;20539;-79
2021/10/18 19:52:42;;;;;;;81.53;25.55;;;17.60;99.90;;;;;;6237206;23;20020;-78
2021/10/18 19:55:11;;;;;;;86.50;26.17;;;17.60;99.90;;;;;;6236319;23;20050;-79
2021/10/18 19:57:40;;;;;;;82.32;27.15;;;17.60;99.90;;;;;;6234216;23;20051;-78
2021/10/18 20:00:09;;;;;;;82.57;25.45;;;17.60;99.90;;;;;;6234417;23;20082;-78
2021/10/18 20:02:38;;;;;;;78.35;26.38;;;17.60;99.90;;;;;;6236711;23;20027;-78
2021/10/18 20:05:06;;;;;;;80.85;25.48;;;17.60;99.90;;;;;;6236180;23;20030;-78
2021/10/18 20:07:33;;;;;;;83.40;27.23;;;17.60;99.90;;;;;;6237106;23;20028;-78
2021/10/18 20:10:00;;;;;;;74.18;24.05;;;17.60;99.90;;;;;;6236410;23;20027;-78
2021/10/18 20:12:27;;;;;;;81.63;26.83;;;17.60;99.90;;;;;;6235925;23;20470;-78
2021/10/18 20:14:54;;;;;;;72.60;24.65;;;17.60;99.90;;;;;;6236634;23;20348;-77